createdAt,value
2023-05-10T00:01:53.141Z,98001.75
2023-05-10T00:04:21.130Z,97998.31
2023-05-10T00:06:49.045Z,97986.66
2023-05-10T00:09:17.001Z,97985.81
2023-05-10T00:11:44.811Z,97986.66
2023-05-10T00:14:12.901Z,97991.47
2023-05-10T00:16:40.811Z,97993.00
2023-05-10T00:19:08.892Z,97998.09
2023-05-10T00:21:36.813Z,97989.84
2023-05-10T00:24:05.232Z,97998.44
2023-05-10T00:26:33.088Z,97992.06
2023-05-10T00:29:02.152Z,97989.13
2023-05-10T00:31:30.092Z,97994.41
2023-05-10T00:33:59.100Z,97987.63
2023-05-10T00:36:27.090Z,97989.22
2023-05-10T00:38:55.015Z,97986.06
2023-05-10T00:41:22.963Z,97994.72
2023-05-10T00:43:51.199Z,97999.03
2023-05-10T00:46:19.611Z,97997.09
2023-05-10T00:48:47.601Z,97993.00
2023-05-10T00:51:15.652Z,98003.94
2023-05-10T00:53:45.425Z,98016.41
2023-05-10T00:56:14.042Z,98011.00
2023-05-10T00:58:42.108Z,97995.47
2023-05-10T01:01:10.910Z,98010.91
2023-05-10T01:03:40.992Z,98019.41
2023-05-10T01:06:09.108Z,98008.28
2023-05-10T01:08:37.643Z,98021.06
2023-05-10T01:11:05.629Z,98010.03
2023-05-10T01:13:40.512Z,98012.41
2023-05-10T01:16:08.800Z,98019.47
2023-05-10T01:18:39.962Z,98015.03
2023-05-10T01:21:38.851Z,98013.00
2023-05-10T01:24:41.883Z,98027.88
2023-05-10T01:27:32.532Z,98031.78
2023-05-10T01:30:28.948Z,98026.84
2023-05-10T01:33:31.447Z,98026.84
2023-05-10T01:36:14.899Z,98021.28
2023-05-10T01:38:53.969Z,98010.25
2023-05-10T01:41:45.852Z,98023.22
2023-05-10T01:44:37.143Z,98030.53
2023-05-10T01:47:11.962Z,98018.94
2023-05-10T01:49:45.365Z,98031.41
2023-05-10T01:52:16.949Z,98024.53
2023-05-10T01:54:51.468Z,98026.13
2023-05-10T01:57:21.738Z,98023.38
2023-05-10T01:59:52.277Z,98022.72
2023-05-10T02:02:22.220Z,98018.22
2023-05-10T02:04:52.348Z,98018.91
2023-05-10T02:07:22.088Z,98025.13
2023-05-10T02:09:51.590Z,98016.91
2023-05-10T02:12:21.535Z,98018.50
2023-05-10T02:14:52.443Z,98022.34
2023-05-10T02:17:20.992Z,98025.00
2023-05-10T02:19:50.668Z,98022.91
2023-05-10T02:22:21.659Z,98033.44
2023-05-10T02:24:51.602Z,98040.41
2023-05-10T02:27:21.027Z,98034.97
2023-05-10T02:29:51.097Z,98031.72
2023-05-10T02:32:20.494Z,98030.63
2023-05-10T02:34:52.785Z,98039.22
2023-05-10T02:37:22.464Z,98028.78
2023-05-10T02:39:52.119Z,98037.09
2023-05-10T02:42:25.243Z,98029.53
2023-05-10T02:44:57.525Z,98032.53
2023-05-10T02:47:25.488Z,98042.69
2023-05-10T02:49:53.347Z,98028.53
2023-05-10T02:52:26.113Z,98038.63
2023-05-10T02:54:57.214Z,98038.47
2023-05-10T02:57:35.335Z,98042.78
2023-05-10T03:00:04.386Z,98032.13
2023-05-10T03:02:33.012Z,98045.72
2023-05-10T03:05:01.451Z,98036.44
2023-05-10T03:07:30.890Z,98038.72
2023-05-10T03:10:00.190Z,98038.78
2023-05-10T03:12:40.120Z,98042.56
2023-05-10T03:15:36.637Z,98039.44
2023-05-10T03:18:16.769Z,98036.47
2023-05-10T03:20:49.387Z,98027.81
2023-05-10T03:23:31.514Z,98035.66
2023-05-10T03:26:00.799Z,98049.56
2023-05-10T03:28:28.931Z,98041.09
2023-05-10T03:30:57.718Z,98044.78
2023-05-10T03:33:25.818Z,98043.09
2023-05-10T03:35:53.712Z,98050.06
2023-05-10T03:38:21.689Z,98053.75
2023-05-10T03:40:49.570Z,98052.06
2023-05-10T03:43:17.536Z,98047.78
2023-05-10T03:45:45.377Z,98040.25
2023-05-10T03:48:14.806Z,98046.66
2023-05-10T03:50:43.929Z,98056.06
2023-05-10T03:53:11.948Z,98050.50
2023-05-10T03:55:39.797Z,98054.72
2023-05-10T03:58:07.731Z,98049.44
2023-05-10T04:00:36.219Z,98041.53
2023-05-10T04:03:05.398Z,98048.94
2023-05-10T04:05:33.422Z,98065.81
2023-05-10T04:08:01.559Z,98066.97
2023-05-10T04:10:31.602Z,98046.97
2023-05-10T04:12:59.458Z,98061.41
2023-05-10T04:15:27.299Z,98066.91
2023-05-10T04:17:55.169Z,98063.84
2023-05-10T04:20:23.073Z,98059.13
2023-05-10T04:22:50.955Z,98061.59
2023-05-10T04:25:18.943Z,98067.44
2023-05-10T04:27:46.760Z,98065.31
2023-05-10T04:30:14.900Z,98070.50
2023-05-10T04:32:42.965Z,98074.50
2023-05-10T04:35:11.691Z,98072.03
2023-05-10T04:37:39.537Z,98071.59
2023-05-10T04:40:08.118Z,98063.94
2023-05-10T04:42:36.005Z,98064.84
2023-05-10T04:45:04.194Z,98078.84
2023-05-10T04:47:32.140Z,98054.81
2023-05-10T04:49:59.982Z,98064.13
2023-05-10T04:52:28.147Z,98073.56
2023-05-10T04:54:55.999Z,98067.16
2023-05-10T04:57:23.850Z,98077.09
2023-05-10T04:59:51.933Z,98082.31
2023-05-10T05:02:19.906Z,98084.44
2023-05-10T05:04:47.714Z,98079.66
2023-05-10T05:07:15.780Z,98088.50
2023-05-10T05:09:43.660Z,98089.44
2023-05-10T05:12:15.032Z,98092.41
2023-05-10T05:14:43.169Z,98090.31
2023-05-10T05:17:11.030Z,98094.09
2023-05-10T05:19:39.109Z,98081.78
2023-05-10T05:22:08.242Z,98098.88
2023-05-10T05:24:39.102Z,98101.19
2023-05-10T05:27:07.669Z,98100.03
2023-05-10T05:29:35.566Z,98099.75
2023-05-10T05:32:03.478Z,98097.84
2023-05-10T05:34:31.298Z,98103.31
2023-05-10T05:36:59.375Z,98114.84
2023-05-10T05:39:27.170Z,98109.31
2023-05-10T05:41:55.010Z,98102.94
2023-05-10T05:44:23.097Z,98114.75
2023-05-10T05:46:50.990Z,98115.75
2023-05-10T05:49:18.819Z,98113.94
2023-05-10T05:51:46.886Z,98123.38
2023-05-10T05:54:14.787Z,98112.44
2023-05-10T05:56:42.687Z,98122.03
2023-05-10T05:59:10.989Z,98121.50
2023-05-10T06:01:38.810Z,98129.31
2023-05-10T06:04:06.739Z,98129.47
2023-05-10T06:06:34.659Z,98131.44
2023-05-10T06:09:02.864Z,98134.56
2023-05-10T06:11:33.046Z,98139.41
2023-05-10T06:14:01.471Z,98144.50
2023-05-10T06:16:29.590Z,98150.59
2023-05-10T06:18:58.094Z,98150.44
2023-05-10T06:21:26.503Z,98150.78
2023-05-10T06:23:54.382Z,98152.16
2023-05-10T06:26:22.209Z,98158.66
2023-05-10T06:28:50.053Z,98145.44
2023-05-10T06:31:18.293Z,98157.19
2023-05-10T06:33:46.316Z,98157.84
2023-05-10T06:36:14.339Z,98166.53
2023-05-10T06:38:42.260Z,98164.22
2023-05-10T06:41:10.139Z,98169.66
2023-05-10T06:43:40.939Z,98165.25
2023-05-10T06:46:09.270Z,98168.81
2023-05-10T06:48:37.273Z,98169.00
2023-05-10T06:51:05.152Z,98166.53
2023-05-10T06:53:33.754Z,98168.28
2023-05-10T06:56:01.682Z,98168.94
2023-05-10T06:58:29.556Z,98173.00
2023-05-10T07:01:04.037Z,98173.06
2023-05-10T07:03:32.610Z,98180.47
2023-05-10T07:06:04.729Z,98182.78
2023-05-10T07:08:32.701Z,98167.28
2023-05-10T07:11:05.531Z,98190.69
2023-05-10T07:13:33.554Z,98179.66
2023-05-10T07:16:03.008Z,98188.53
2023-05-10T07:18:30.944Z,98197.59
2023-05-10T07:20:58.882Z,98192.28
2023-05-10T07:23:26.760Z,98198.75
2023-05-10T07:25:54.889Z,98196.69
2023-05-10T07:28:23.223Z,98195.13
2023-05-10T07:30:52.018Z,98192.91
2023-05-10T07:33:20.257Z,98188.50
2023-05-10T07:35:48.219Z,98193.59
2023-05-10T07:38:16.130Z,98201.97
2023-05-10T07:40:44.019Z,98199.44
2023-05-10T07:43:12.140Z,98200.97
2023-05-10T07:45:40.030Z,98219.44
2023-05-10T07:48:07.985Z,98206.41
2023-05-10T07:50:35.907Z,98206.31
2023-05-10T07:53:03.758Z,98209.84
2023-05-10T07:55:31.716Z,98201.88
2023-05-10T07:58:02.076Z,98197.81
2023-05-10T08:00:30.045Z,98200.34
2023-05-10T08:02:58.048Z,98206.91
2023-05-10T08:05:26.040Z,98206.81
2023-05-10T08:07:53.845Z,98210.16
2023-05-10T08:10:21.882Z,98215.28
2023-05-10T08:12:50.028Z,98209.13
2023-05-10T08:15:18.313Z,98214.69
2023-05-10T08:17:46.665Z,98218.03
2023-05-10T08:20:17.670Z,98225.81
2023-05-10T08:22:49.988Z,98232.94
2023-05-10T08:25:20.019Z,98232.34
2023-05-10T08:27:48.353Z,98224.31
2023-05-10T08:30:16.466Z,98227.28
2023-05-10T08:32:44.335Z,98232.13
2023-05-10T08:35:12.249Z,98223.16
2023-05-10T08:37:40.173Z,98245.69
2023-05-10T08:40:11.704Z,98242.91
2023-05-10T08:42:44.785Z,98246.13
2023-05-10T08:45:13.719Z,98243.28
2023-05-10T08:47:42.240Z,98244.06
2023-05-10T08:50:11.463Z,98238.06
2023-05-10T08:52:41.600Z,98253.56
2023-05-10T08:55:09.650Z,98250.75
2023-05-10T08:57:37.732Z,98255.34
2023-05-10T09:00:06.623Z,98242.72
2023-05-10T09:02:36.336Z,98251.00
2023-05-10T09:05:05.860Z,98253.13
2023-05-10T09:07:34.830Z,98255.06
2023-05-10T09:10:06.229Z,98251.09
2023-05-10T09:12:34.592Z,98251.44
2023-05-10T09:15:02.997Z,98249.03
2023-05-10T09:17:31.263Z,98255.84
2023-05-10T09:20:05.039Z,98260.94
2023-05-10T09:22:33.089Z,98259.41
2023-05-10T09:25:08.284Z,98256.66
2023-05-10T09:27:37.192Z,98262.09
2023-05-10T09:30:06.289Z,98255.69
2023-05-10T09:32:41.350Z,98262.09
2023-05-10T09:35:20.431Z,98253.53
2023-05-10T09:37:51.437Z,98254.97
2023-05-10T09:40:24.095Z,98259.84
2023-05-10T09:43:03.894Z,98260.66
2023-05-10T09:45:37.013Z,98257.72
2023-05-10T09:48:07.039Z,98251.03
2023-05-10T09:50:35.304Z,98247.50
2023-05-10T09:53:04.594Z,98240.81
2023-05-10T09:55:47.309Z,98255.47
2023-05-10T09:58:15.976Z,98255.97
2023-05-10T10:00:45.538Z,98249.38
2023-05-10T10:03:18.115Z,98248.59
2023-05-10T10:05:47.939Z,98247.28
2023-05-10T10:08:16.708Z,98250.63
2023-05-10T10:10:47.545Z,98245.97
2023-05-10T10:13:16.432Z,98241.91
2023-05-10T10:15:45.629Z,98240.25
2023-05-10T10:18:15.756Z,98243.16
2023-05-10T10:20:43.878Z,98242.94
2023-05-10T10:23:11.784Z,98242.06
2023-05-10T10:25:40.035Z,98249.25
2023-05-10T10:28:22.569Z,98248.28
2023-05-10T10:30:54.732Z,98241.06
2023-05-10T10:34:04.851Z,98246.06
2023-05-10T10:36:34.916Z,98245.06
2023-05-10T10:39:04.243Z,98244.56
2023-05-10T10:41:33.251Z,98245.34
2023-05-10T10:44:30.313Z,98247.13
2023-05-10T10:47:04.697Z,98242.47
2023-05-10T10:49:38.853Z,98240.50
2023-05-10T10:52:30.944Z,98240.03
2023-05-10T10:55:10.965Z,98231.28
2023-05-10T10:57:42.367Z,98241.09
2023-05-10T11:00:28.892Z,98244.28
2023-05-10T11:02:59.911Z,98246.66
2023-05-10T11:05:33.734Z,98234.19
2023-05-10T11:08:09.049Z,98243.31
2023-05-10T11:10:37.120Z,98238.47
2023-05-10T11:13:10.249Z,98237.13
2023-05-10T11:15:41.113Z,98239.16
2023-05-10T11:18:20.268Z,98220.75
2023-05-10T11:21:03.740Z,98233.84
2023-05-10T11:23:33.873Z,98230.81
2023-05-10T11:26:05.856Z,98228.81
2023-05-10T11:28:33.986Z,98231.31
2023-05-10T11:31:02.225Z,98239.75
2023-05-10T11:33:30.100Z,98239.03
2023-05-10T11:35:58.293Z,98239.84
2023-05-10T11:38:26.176Z,98237.75
2023-05-10T11:40:54.657Z,98238.09
2023-05-10T11:43:24.837Z,98238.22
2023-05-10T11:45:52.910Z,98242.50
2023-05-10T11:48:24.750Z,98236.94
2023-05-10T11:50:52.780Z,98245.94
2023-05-10T11:53:24.800Z,98246.75
2023-05-10T11:55:53.886Z,98246.31
2023-05-10T11:58:22.371Z,98235.09
2023-05-10T12:00:51.224Z,98243.81
2023-05-10T12:03:19.967Z,98241.13
2023-05-10T12:05:47.899Z,98249.84
2023-05-10T12:08:17.241Z,98238.50
2023-05-10T12:10:45.136Z,98245.16
2023-05-10T12:13:15.195Z,98237.28
2023-05-10T12:15:44.399Z,98243.25
2023-05-10T12:18:13.650Z,98231.13
2023-05-10T12:20:42.290Z,98238.69
2023-05-10T12:23:11.077Z,98255.97
2023-05-10T12:25:40.217Z,98242.69
2023-05-10T12:28:10.628Z,98249.56
2023-05-10T12:30:39.732Z,98251.56
2023-05-10T12:33:13.292Z,98246.47
2023-05-10T12:35:49.441Z,98248.75
2023-05-10T12:38:26.308Z,98245.75
2023-05-10T12:40:54.268Z,98246.97
2023-05-10T12:43:22.181Z,98254.47
2023-05-10T12:45:50.125Z,98251.69
2023-05-10T12:48:18.072Z,98255.38
2023-05-10T12:50:46.532Z,98254.63
2023-05-10T12:53:16.559Z,98249.06
2023-05-10T12:55:45.415Z,98245.50
2023-05-10T12:58:17.955Z,98251.81
2023-05-10T13:00:57.367Z,98245.38
2023-05-10T13:03:25.610Z,98244.22
2023-05-10T13:05:53.488Z,98234.03
2023-05-10T13:08:21.358Z,98240.28
2023-05-10T13:10:49.511Z,98246.97
2023-05-10T13:13:17.627Z,98246.69
2023-05-10T13:15:45.693Z,98240.59
2023-05-10T13:18:13.968Z,98243.53
2023-05-10T13:20:42.001Z,98246.16
2023-05-10T13:23:09.890Z,98250.16
2023-05-10T13:25:37.711Z,98250.59
2023-05-10T13:28:05.795Z,98246.28
2023-05-10T13:30:33.810Z,98244.75
2023-05-10T13:33:01.690Z,98225.81
2023-05-10T13:35:29.620Z,98236.19
2023-05-10T13:37:58.736Z,98244.81
2023-05-10T13:40:26.610Z,98234.69
2023-05-10T13:42:54.795Z,98233.69
2023-05-10T13:45:22.738Z,98231.34
2023-05-10T13:47:51.101Z,98230.66
2023-05-10T13:50:19.541Z,98223.09
2023-05-10T13:52:47.338Z,98224.75
2023-05-10T13:55:15.619Z,98222.78
2023-05-10T13:57:44.184Z,98222.88
2023-05-10T14:00:12.523Z,98229.56
2023-05-10T14:02:40.765Z,98222.63
2023-05-10T14:05:08.947Z,98219.97
2023-05-10T14:07:36.865Z,98219.06
2023-05-10T14:10:05.062Z,98219.09
2023-05-10T14:12:33.253Z,98215.28
2023-05-10T14:15:01.164Z,98225.84
2023-05-10T14:17:29.471Z,98220.31
2023-05-10T14:19:57.425Z,98213.56
2023-05-10T14:22:25.392Z,98213.91
2023-05-10T14:24:53.200Z,98210.22
2023-05-10T14:27:21.448Z,98209.81
2023-05-10T14:29:49.365Z,98215.34
2023-05-10T14:32:17.409Z,98221.56
2023-05-10T14:34:45.452Z,98208.16
2023-05-10T14:37:15.013Z,98208.97
2023-05-10T14:39:43.452Z,98212.13
2023-05-10T14:42:11.592Z,98216.72
2023-05-10T14:44:39.644Z,98206.16
2023-05-10T14:47:07.815Z,98205.75
2023-05-10T14:49:36.331Z,98215.22
2023-05-10T14:52:04.389Z,98215.34
2023-05-10T14:54:34.357Z,98213.81
2023-05-10T14:57:02.375Z,98203.41
2023-05-10T14:59:30.467Z,98209.66
2023-05-10T15:01:58.772Z,98217.25
2023-05-10T15:04:29.607Z,98218.41
2023-05-10T15:07:00.189Z,98222.88
2023-05-10T15:09:31.587Z,98228.84
2023-05-10T15:11:59.501Z,98228.16
2023-05-10T15:14:27.450Z,98221.25
2023-05-10T15:16:55.304Z,98221.66
2023-05-10T15:19:23.276Z,98228.41
2023-05-10T15:21:51.138Z,98226.38
2023-05-10T15:24:19.178Z,98227.84
2023-05-10T15:26:47.039Z,98230.56
2023-05-10T15:29:20.929Z,98231.78
2023-05-10T15:31:49.283Z,98228.91
2023-05-10T15:34:18.760Z,98227.31
2023-05-10T15:36:46.846Z,98229.94
2023-05-10T15:39:14.775Z,98230.34
2023-05-10T15:41:42.856Z,98230.34
2023-05-10T15:44:10.800Z,98226.47
2023-05-10T15:46:39.036Z,98228.81
2023-05-10T15:49:07.581Z,98225.25
2023-05-10T15:51:36.759Z,98234.72
2023-05-10T15:54:08.240Z,98232.00
2023-05-10T15:56:36.571Z,98228.41
2023-05-10T15:59:06.615Z,98229.25
2023-05-10T16:01:34.752Z,98227.00
2023-05-10T16:04:02.816Z,98246.66
2023-05-10T16:06:31.341Z,98231.19
2023-05-10T16:08:59.269Z,98229.13
2023-05-10T16:11:27.209Z,98239.78
2023-05-10T16:13:55.121Z,98236.22
2023-05-10T16:16:23.107Z,98233.81
2023-05-10T16:18:52.266Z,98238.09
2023-05-10T16:21:20.781Z,98240.09
2023-05-10T16:23:48.760Z,98232.19
2023-05-10T16:26:16.947Z,98228.94
2023-05-10T16:28:44.856Z,98232.91
2023-05-10T16:31:13.138Z,98229.38
2023-05-10T16:33:41.038Z,98232.56
2023-05-10T16:36:08.971Z,98245.63
2023-05-10T16:38:37.699Z,98243.66
2023-05-10T16:41:06.743Z,98227.25
2023-05-10T16:43:34.644Z,98238.88
2023-05-10T16:46:02.784Z,98240.91
2023-05-10T16:48:30.699Z,98244.47
2023-05-10T16:50:58.538Z,98243.28
2023-05-10T16:53:26.399Z,98247.16
2023-05-10T16:55:54.402Z,98247.91
2023-05-10T16:58:22.448Z,98251.41
2023-05-10T17:00:50.271Z,98247.00
2023-05-10T17:03:18.275Z,98247.09
2023-05-10T17:05:46.193Z,98251.81
2023-05-10T17:08:14.076Z,98261.63
2023-05-10T17:10:42.170Z,98258.88
2023-05-10T17:13:10.664Z,98260.81
2023-05-10T17:15:39.820Z,98256.41
2023-05-10T17:18:10.252Z,98254.03
2023-05-10T17:20:38.325Z,98272.25
2023-05-10T17:23:06.249Z,98276.59
2023-05-10T17:25:35.375Z,98277.78
2023-05-10T17:28:03.999Z,98282.91
2023-05-10T17:30:32.796Z,98277.00
2023-05-10T17:33:01.788Z,98287.25
2023-05-10T17:35:31.468Z,98272.81
2023-05-10T17:37:59.363Z,98288.78
2023-05-10T17:40:27.285Z,98289.00
2023-05-10T17:42:55.133Z,98289.75
2023-05-10T17:45:23.080Z,98294.19
2023-05-10T17:47:50.988Z,98289.09
2023-05-10T17:50:18.914Z,98290.97
2023-05-10T17:52:46.792Z,98296.81
2023-05-10T17:55:15.063Z,98301.16
2023-05-10T17:57:43.067Z,98297.59
2023-05-10T18:00:13.612Z,98301.47
2023-05-10T18:02:42.749Z,98299.88
2023-05-10T18:05:11.079Z,98302.56
2023-05-10T18:07:39.949Z,98290.66
2023-05-10T18:10:08.453Z,98294.53
2023-05-10T18:12:36.341Z,98298.63
2023-05-10T18:15:04.450Z,98303.72
2023-05-10T18:17:34.981Z,98314.69
2023-05-10T18:20:03.484Z,98314.38
2023-05-10T18:22:31.626Z,98317.16
2023-05-10T18:24:59.926Z,98311.44
2023-05-10T18:27:28.356Z,98321.38
2023-05-10T18:29:56.260Z,98328.44
2023-05-10T18:32:24.457Z,98324.88
2023-05-10T18:34:53.945Z,98316.72
2023-05-10T18:37:23.495Z,98326.97
2023-05-10T18:39:51.561Z,98332.53
2023-05-10T18:42:20.551Z,98329.72
2023-05-10T18:44:48.405Z,98336.72
2023-05-10T18:47:16.278Z,98340.72
2023-05-10T18:49:46.191Z,98345.88
2023-05-10T18:52:15.985Z,98339.63
2023-05-10T18:54:43.860Z,98344.25
2023-05-10T18:57:12.725Z,98359.75
2023-05-10T18:59:40.554Z,98345.88
2023-05-10T19:02:08.495Z,98353.78
2023-05-10T19:04:36.627Z,98354.16
2023-05-10T19:07:04.514Z,98352.19
2023-05-10T19:09:32.555Z,98354.53
2023-05-10T19:12:00.596Z,98356.13
2023-05-10T19:14:28.686Z,98363.56
2023-05-10T19:16:56.652Z,98364.78
2023-05-10T19:19:26.160Z,98372.22
2023-05-10T19:21:55.853Z,98366.22
2023-05-10T19:24:25.765Z,98368.13
2023-05-10T19:26:55.338Z,98365.03
2023-05-10T19:29:23.538Z,98376.94
2023-05-10T19:31:52.445Z,98365.50
2023-05-10T19:34:20.462Z,98378.94
2023-05-10T19:36:48.385Z,98371.84
2023-05-10T19:39:16.293Z,98363.47
2023-05-10T19:41:44.337Z,98375.47
2023-05-10T19:44:12.174Z,98377.06
2023-05-10T19:46:40.161Z,98375.84
2023-05-10T19:49:08.099Z,98379.69
2023-05-10T19:51:35.928Z,98378.09
2023-05-10T19:54:03.924Z,98376.56
2023-05-10T19:56:31.769Z,98382.03
2023-05-10T19:58:59.745Z,98377.16
2023-05-10T20:01:27.631Z,98381.88
2023-05-10T20:03:56.728Z,98382.59
2023-05-10T20:06:24.649Z,98382.84
2023-05-10T20:08:52.486Z,98380.72
2023-05-10T20:11:21.521Z,98383.63
2023-05-10T20:13:49.419Z,98381.22
2023-05-10T20:16:17.326Z,98373.59
2023-05-10T20:18:46.614Z,98382.69
2023-05-10T20:21:14.967Z,98394.38
2023-05-10T20:23:43.367Z,98396.00
2023-05-10T20:26:12.467Z,98396.72
2023-05-10T20:28:41.109Z,98393.00
2023-05-10T20:31:09.781Z,98388.72
2023-05-10T20:33:37.714Z,98393.81
2023-05-10T20:36:05.817Z,98393.81
2023-05-10T20:38:33.683Z,98394.63
2023-05-10T20:41:01.574Z,98387.56
2023-05-10T20:43:29.432Z,98383.47
2023-05-10T20:45:57.638Z,98389.91
2023-05-10T20:48:25.498Z,98402.47
2023-05-10T20:50:53.332Z,98398.53
2023-05-10T20:53:21.239Z,98396.41
2023-05-10T20:55:49.173Z,98392.84
2023-05-10T20:58:17.031Z,98387.31
2023-05-10T21:00:44.908Z,98396.13
2023-05-10T21:03:14.164Z,98397.75
2023-05-10T21:05:44.895Z,98389.09
2023-05-10T21:08:12.766Z,98391.09
2023-05-10T21:10:40.715Z,98388.41
2023-05-10T21:13:08.586Z,98378.41
2023-05-10T21:15:36.693Z,98385.53
2023-05-10T21:18:05.050Z,98386.13
2023-05-10T21:20:32.915Z,98381.31
2023-05-10T21:23:00.941Z,98376.88
2023-05-10T21:25:28.855Z,98381.09
2023-05-10T21:27:57.176Z,98385.44
2023-05-10T21:30:25.159Z,98385.97
2023-05-10T21:32:55.159Z,98391.03
2023-05-10T21:35:23.202Z,98389.00
2023-05-10T21:37:51.079Z,98389.44
2023-05-10T21:40:19.222Z,98393.72
2023-05-10T21:42:49.398Z,98387.38
2023-05-10T21:45:19.509Z,98388.47
2023-05-10T21:47:47.570Z,98394.63
2023-05-10T21:50:15.724Z,98399.88
2023-05-10T21:52:43.615Z,98393.97
2023-05-10T21:55:11.478Z,98399.44
2023-05-10T21:57:39.351Z,98403.44
2023-05-10T22:00:08.419Z,98393.31
2023-05-10T22:02:36.367Z,98395.06
2023-05-10T22:05:04.440Z,98400.59
2023-05-10T22:07:33.207Z,98392.16
2023-05-10T22:10:01.247Z,98394.94
2023-05-10T22:12:29.154Z,98393.13
2023-05-10T22:15:09.399Z,98392.25
2023-05-10T22:17:40.081Z,98404.09
2023-05-10T22:20:08.938Z,98400.88
2023-05-10T22:22:36.859Z,98404.88
2023-05-10T22:25:07.350Z,98398.03
2023-05-10T22:27:35.550Z,98407.66
2023-05-10T22:30:04.207Z,98400.16
2023-05-10T22:32:34.427Z,98400.44
2023-05-10T22:35:02.472Z,98400.44
2023-05-10T22:37:30.701Z,98395.88
2023-05-10T22:39:58.513Z,98402.78
2023-05-10T22:42:26.371Z,98400.00
2023-05-10T22:44:54.257Z,98395.28
2023-05-10T22:47:22.204Z,98396.00
2023-05-10T22:49:50.355Z,98397.97
2023-05-10T22:52:18.200Z,98400.34
2023-05-10T22:54:46.010Z,98396.63
2023-05-10T22:57:13.922Z,98407.47
2023-05-10T22:59:42.468Z,98406.84
2023-05-10T23:02:10.692Z,98406.84
2023-05-10T23:04:38.584Z,98405.50
2023-05-10T23:07:07.005Z,98413.44
2023-05-10T23:09:35.034Z,98410.41
2023-05-10T23:12:03.137Z,98404.28
2023-05-10T23:14:30.958Z,98409.69
2023-05-10T23:16:58.975Z,98412.91
2023-05-10T23:19:26.821Z,98412.63
2023-05-10T23:21:54.731Z,98411.13
2023-05-10T23:24:22.925Z,98415.22
2023-05-10T23:26:51.226Z,98414.16
2023-05-10T23:29:19.149Z,98407.47
2023-05-10T23:31:50.998Z,98415.03
2023-05-10T23:34:18.885Z,98413.78
2023-05-10T23:36:46.786Z,98413.44
2023-05-10T23:39:14.644Z,98419.75
2023-05-10T23:41:42.751Z,98410.47
2023-05-10T23:44:10.621Z,98421.28
2023-05-10T23:46:38.464Z,98424.47
2023-05-10T23:49:06.474Z,98413.34
2023-05-10T23:51:34.411Z,98413.34
2023-05-10T23:54:02.293Z,98406.16
2023-05-10T23:56:30.102Z,98409.09
2023-05-10T23:58:57.922Z,98406.44
